createdAt,value
2019-03-30T00:00:36.620Z,55.30
2019-03-30T00:03:07.371Z,55.50
2019-03-30T00:05:38.025Z,55.60
2019-03-30T00:08:09.736Z,55.30
2019-03-30T00:10:40.300Z,55.50
2019-03-30T00:13:11.982Z,55.60
2019-03-30T00:15:42.660Z,55.50
2019-03-30T00:18:13.448Z,55.30
2019-03-30T00:20:44.187Z,55.10
2019-03-30T00:23:14.861Z,55.30
2019-03-30T00:25:45.490Z,55.30
2019-03-30T00:28:16.272Z,55.50
2019-03-30T00:30:46.904Z,55.60
2019-03-30T00:33:18.659Z,55.80
2019-03-30T00:35:48.621Z,55.80
2019-03-30T00:38:19.347Z,56.40
2019-03-30T00:40:49.987Z,55.70
2019-03-30T00:43:20.740Z,56.00
2019-03-30T00:45:51.298Z,55.70
2019-03-30T00:48:22.152Z,55.90
2019-03-30T00:50:52.325Z,56.00
2019-03-30T00:53:22.967Z,56.20
2019-03-30T00:55:53.519Z,56.50
2019-03-30T00:58:25.651Z,56.70
2019-03-30T01:00:55.751Z,57.20
2019-03-30T01:03:26.939Z,57.50
2019-03-30T01:05:58.359Z,57.90
2019-03-30T01:08:29.199Z,58.30
2019-03-30T01:10:59.168Z,58.40
2019-03-30T01:13:30.888Z,58.60
2019-03-30T01:16:00.976Z,58.70
2019-03-30T01:18:32.271Z,58.90
2019-03-30T01:21:03.015Z,59.50
2019-03-30T01:23:33.760Z,59.80
2019-03-30T01:26:04.395Z,60.00
2019-03-30T01:28:35.069Z,60.50
2019-03-30T01:31:05.988Z,60.70
2019-03-30T01:33:36.626Z,60.80
2019-03-30T01:36:08.234Z,60.60
2019-03-30T01:38:38.365Z,60.80
2019-03-30T01:41:08.333Z,60.50
2019-03-30T01:43:39.079Z,60.50
2019-03-30T01:46:10.703Z,60.30
2019-03-30T01:48:40.997Z,60.40
2019-03-30T01:51:11.226Z,60.40
2019-03-30T01:53:41.321Z,60.40
2019-03-30T01:56:12.326Z,60.50
2019-03-30T01:58:42.963Z,60.70
2019-03-30T02:01:13.203Z,60.90
2019-03-30T02:03:43.264Z,60.70
2019-03-30T02:06:14.913Z,60.50
2019-03-30T02:08:45.118Z,60.60
2019-03-30T02:11:15.067Z,60.60
2019-03-30T02:13:46.176Z,60.40
2019-03-30T02:16:17.939Z,60.10
2019-03-30T02:18:48.128Z,59.90
2019-03-30T02:21:18.294Z,60.20
2019-03-30T02:23:48.484Z,60.40
2019-03-30T02:26:20.326Z,60.70
2019-03-30T02:28:50.396Z,60.50
2019-03-30T02:31:21.044Z,60.50
2019-03-30T02:33:51.227Z,60.50
2019-03-30T02:36:23.492Z,60.30
2019-03-30T02:38:53.601Z,60.30
2019-03-30T02:41:23.677Z,60.00
2019-03-30T02:43:53.827Z,60.00
2019-03-30T02:46:23.821Z,60.00
2019-03-30T02:48:53.910Z,60.30
2019-03-30T02:51:23.956Z,60.50
2019-03-30T02:53:54.043Z,60.60
2019-03-30T02:56:25.115Z,60.70
2019-03-30T02:58:55.273Z,60.60
2019-03-30T03:01:25.358Z,60.50
2019-03-30T03:03:55.492Z,60.60
2019-03-30T03:06:26.561Z,60.60
2019-03-30T03:08:56.785Z,60.40
2019-03-30T03:11:26.935Z,60.20
2019-03-30T03:13:57.973Z,60.10
2019-03-30T03:16:29.790Z,60.00
2019-03-30T03:18:59.957Z,60.00
2019-03-30T03:21:30.007Z,60.10
2019-03-30T03:24:00.093Z,60.20
2019-03-30T03:26:31.411Z,60.30
2019-03-30T03:29:01.623Z,60.30
2019-03-30T03:31:31.697Z,60.40
2019-03-30T03:34:02.119Z,60.50
2019-03-30T03:36:33.338Z,60.60
2019-03-30T03:39:05.235Z,60.60
2019-03-30T03:41:35.283Z,60.90
2019-03-30T03:44:05.473Z,61.00
2019-03-30T03:46:36.684Z,61.20
2019-03-30T03:49:06.861Z,61.30
2019-03-30T03:51:37.294Z,61.50
2019-03-30T03:54:07.460Z,61.50
2019-03-30T03:56:39.912Z,61.40
2019-03-30T03:59:11.962Z,62.10
2019-03-30T04:01:44.018Z,61.10
2019-03-30T04:04:15.683Z,61.10
2019-03-30T04:06:50.106Z,61.00
2019-03-30T04:09:23.093Z,61.00
2019-03-30T04:11:55.365Z,61.00
2019-03-30T04:14:27.445Z,61.10
2019-03-30T04:16:58.773Z,61.10
2019-03-30T04:19:28.904Z,61.20
2019-03-30T04:22:10.694Z,61.10
2019-03-30T04:24:42.547Z,61.00
2019-03-30T04:27:12.542Z,61.10
2019-03-30T04:29:42.635Z,61.10
2019-03-30T04:32:12.677Z,61.10
2019-03-30T04:34:43.912Z,61.40
2019-03-30T04:37:14.238Z,61.70
2019-03-30T04:39:44.429Z,61.50
2019-03-30T04:42:14.395Z,62.10
2019-03-30T04:44:44.538Z,61.80
2019-03-30T04:47:14.526Z,61.70
2019-03-30T04:49:44.683Z,61.70
2019-03-30T04:52:14.626Z,62.40
2019-03-30T04:54:44.843Z,61.80
2019-03-30T04:57:14.810Z,61.70
2019-03-30T04:59:44.944Z,61.90
2019-03-30T05:02:14.918Z,62.00
2019-03-30T05:04:45.063Z,62.00
2019-03-30T05:07:15.068Z,62.10
2019-03-30T05:09:45.203Z,62.10
2019-03-30T05:12:15.279Z,62.10
2019-03-30T05:14:46.398Z,61.90
2019-03-30T05:17:16.360Z,61.60
2019-03-30T05:19:46.419Z,61.10
2019-03-30T05:22:16.785Z,60.50
2019-03-30T05:24:47.144Z,59.70
2019-03-30T05:27:17.225Z,59.00
2019-03-30T05:29:47.281Z,58.30
2019-03-30T05:32:17.424Z,57.50
2019-03-30T05:34:47.523Z,56.70
2019-03-30T05:37:17.596Z,55.60
2019-03-30T05:39:47.708Z,54.00
2019-03-30T05:42:18.235Z,52.70
2019-03-30T05:44:48.348Z,51.40
2019-03-30T05:47:19.465Z,50.10
2019-03-30T05:49:49.626Z,48.70
2019-03-30T05:52:26.429Z,47.40
2019-03-30T05:54:51.856Z,46.80
2019-03-30T05:57:22.456Z,46.30
2019-03-30T05:59:55.643Z,45.60
2019-03-30T06:02:25.271Z,44.80
2019-03-30T06:04:56.011Z,43.70
2019-03-30T06:07:26.631Z,42.40
2019-03-30T06:09:57.269Z,41.80
2019-03-30T06:12:27.842Z,40.80
2019-03-30T06:14:59.502Z,40.00
2019-03-30T06:17:31.096Z,39.10
2019-03-30T06:20:01.719Z,37.90
2019-03-30T06:22:40.059Z,36.60
2019-03-30T06:25:05.046Z,35.10
2019-03-30T06:27:35.650Z,33.90
2019-03-30T06:30:21.021Z,33.20
2019-03-30T06:32:51.720Z,32.10
2019-03-30T06:35:22.569Z,31.20
2019-03-30T06:37:53.220Z,30.70
2019-03-30T06:40:24.031Z,29.70
2019-03-30T06:42:54.661Z,29.00
2019-03-30T06:45:25.292Z,28.20
2019-03-30T06:47:55.846Z,27.60
2019-03-30T06:50:26.495Z,26.70
2019-03-30T06:52:58.641Z,25.90
2019-03-30T06:55:29.262Z,25.20
2019-03-30T06:58:00.866Z,24.40
2019-03-30T07:00:36.142Z,23.90
2019-03-30T07:03:25.639Z,23.70
2019-03-30T07:05:57.075Z,23.00
2019-03-30T07:08:28.415Z,22.80
2019-03-30T07:11:01.689Z,22.70
2019-03-30T07:13:34.576Z,22.50
2019-03-30T07:16:05.469Z,22.00
2019-03-30T07:18:36.879Z,21.40
2019-03-30T07:21:07.337Z,21.40
2019-03-30T07:23:37.657Z,21.10
2019-03-30T07:26:09.215Z,20.40
2019-03-30T07:28:39.536Z,20.10
2019-03-30T07:31:09.876Z,20.00
2019-03-30T07:33:40.121Z,19.70
2019-03-30T07:36:10.690Z,19.00
2019-03-30T07:38:41.001Z,19.20
2019-03-30T07:41:11.410Z,19.00
2019-03-30T07:43:41.632Z,18.60
2019-03-30T07:46:11.990Z,18.80
2019-03-30T07:48:42.229Z,18.30
2019-03-30T07:51:12.776Z,17.60
2019-03-30T07:53:44.886Z,17.40
2019-03-30T07:56:14.955Z,17.10
2019-03-30T07:58:45.293Z,17.10
2019-03-30T08:01:15.732Z,17.20
2019-03-30T08:03:46.052Z,16.80
2019-03-30T08:06:16.398Z,16.70
2019-03-30T08:08:46.642Z,16.40
2019-03-30T08:11:17.173Z,16.50
2019-03-30T08:13:47.420Z,16.60
2019-03-30T08:16:18.851Z,16.40
2019-03-30T08:18:49.103Z,16.40
2019-03-30T08:21:19.594Z,17.00
2019-03-30T08:23:49.846Z,17.10
2019-03-30T08:26:20.208Z,17.30
2019-03-30T08:28:50.546Z,17.60
2019-03-30T08:31:20.993Z,18.00
2019-03-30T08:33:51.331Z,17.90
2019-03-30T08:36:21.687Z,17.60
2019-03-30T08:38:51.955Z,17.60
2019-03-30T08:41:22.439Z,18.00
2019-03-30T08:43:52.710Z,17.60
2019-03-30T08:46:23.199Z,17.60
2019-03-30T08:48:53.467Z,17.30
2019-03-30T08:51:23.905Z,16.80
2019-03-30T08:53:55.107Z,16.90
2019-03-30T08:56:28.088Z,16.50
2019-03-30T08:58:58.668Z,16.60
2019-03-30T09:01:30.214Z,16.50
2019-03-30T09:04:00.454Z,16.00
2019-03-30T09:06:30.940Z,16.00
2019-03-30T09:09:01.231Z,16.60
2019-03-30T09:11:33.228Z,16.90
2019-03-30T09:14:05.248Z,17.30
2019-03-30T09:16:37.698Z,16.90
2019-03-30T09:19:08.034Z,16.10
2019-03-30T09:21:38.512Z,16.10
2019-03-30T09:24:10.361Z,16.30
2019-03-30T09:26:42.177Z,16.10
2019-03-30T09:29:12.463Z,15.90
2019-03-30T09:31:42.934Z,16.60
2019-03-30T09:34:13.184Z,17.70
2019-03-30T09:36:43.654Z,17.70
2019-03-30T09:39:14.119Z,17.20
2019-03-30T09:41:44.537Z,17.30
2019-03-30T09:44:14.803Z,18.10
2019-03-30T09:46:45.151Z,18.40
2019-03-30T09:49:15.430Z,17.80
2019-03-30T09:51:46.095Z,18.60
2019-03-30T09:54:23.505Z,19.90
2019-03-30T09:56:49.008Z,21.30
2019-03-30T09:59:19.575Z,22.50
2019-03-30T10:01:50.430Z,23.50
2019-03-30T10:04:21.079Z,23.60
2019-03-30T10:06:51.827Z,24.40
2019-03-30T10:09:22.597Z,25.10
2019-03-30T10:11:53.420Z,26.30
2019-03-30T10:14:24.053Z,27.00
2019-03-30T10:16:55.655Z,27.50
2019-03-30T10:19:27.813Z,27.40
2019-03-30T10:21:58.729Z,27.80
2019-03-30T10:24:38.080Z,28.60
2019-03-30T10:27:01.565Z,28.70
2019-03-30T10:29:32.298Z,28.50
2019-03-30T10:32:04.907Z,28.50
2019-03-30T10:34:35.543Z,28.60
2019-03-30T10:37:06.252Z,28.40
2019-03-30T10:39:36.898Z,28.90
2019-03-30T10:42:07.666Z,28.70
2019-03-30T10:44:38.309Z,28.20
2019-03-30T10:47:08.957Z,27.80
2019-03-30T10:49:39.526Z,28.40
2019-03-30T10:52:10.191Z,27.90
2019-03-30T10:54:51.923Z,29.80
2019-03-30T10:57:32.381Z,28.80
2019-03-30T11:00:02.936Z,28.70
2019-03-30T11:02:33.755Z,29.00
2019-03-30T11:05:05.279Z,28.50
2019-03-30T11:07:36.036Z,28.30
2019-03-30T11:10:07.966Z,28.50
2019-03-30T11:12:38.688Z,29.00
2019-03-30T11:15:09.566Z,29.00
2019-03-30T11:17:41.154Z,29.20
2019-03-30T11:20:11.835Z,29.90
2019-03-30T11:22:42.600Z,30.70
2019-03-30T11:25:13.313Z,30.00
2019-03-30T11:27:44.043Z,30.10
2019-03-30T11:30:15.140Z,30.90
2019-03-30T11:32:45.960Z,30.60
2019-03-30T11:35:16.623Z,31.60
2019-03-30T11:37:47.404Z,32.60
2019-03-30T11:40:18.085Z,31.80
2019-03-30T11:42:48.934Z,32.10
2019-03-30T11:45:19.467Z,31.80
2019-03-30T11:47:50.213Z,31.20
2019-03-30T11:50:20.841Z,31.80
2019-03-30T11:52:51.582Z,31.10
2019-03-30T11:55:22.628Z,32.00
2019-03-30T11:57:53.347Z,31.50
2019-03-30T12:00:23.920Z,32.10
2019-03-30T12:02:54.649Z,31.70
2019-03-30T12:05:25.186Z,31.40
2019-03-30T12:07:55.822Z,31.60
2019-03-30T12:10:26.374Z,32.70
2019-03-30T12:12:57.581Z,33.40
2019-03-30T12:15:28.228Z,32.20
2019-03-30T12:17:59.941Z,32.50
2019-03-30T12:20:30.563Z,32.40
2019-03-30T12:23:01.220Z,32.50
2019-03-30T12:25:35.978Z,32.10
2019-03-30T12:28:04.243Z,32.60
2019-03-30T12:30:34.896Z,33.30
2019-03-30T12:33:05.641Z,33.10
2019-03-30T12:35:36.191Z,31.40
2019-03-30T12:38:08.071Z,31.80
2019-03-30T12:40:38.628Z,30.60
2019-03-30T12:43:09.367Z,30.50
2019-03-30T12:45:40.061Z,30.50
2019-03-30T12:48:10.809Z,30.90
2019-03-30T12:50:41.339Z,30.90
2019-03-30T12:53:12.091Z,30.10
2019-03-30T12:55:49.153Z,30.80
2019-03-30T12:58:14.913Z,30.80
2019-03-30T13:00:45.567Z,31.20
2019-03-30T13:03:16.307Z,30.70
2019-03-30T13:05:46.940Z,30.50
2019-03-30T13:08:17.617Z,30.70
2019-03-30T13:10:48.274Z,31.00
2019-03-30T13:13:19.082Z,30.50
2019-03-30T13:15:49.595Z,30.80
2019-03-30T13:18:21.123Z,30.80
2019-03-30T13:20:51.686Z,30.80
2019-03-30T13:23:22.456Z,30.70
2019-03-30T13:26:02.834Z,30.70
2019-03-30T13:28:24.954Z,30.90
2019-03-30T13:30:55.599Z,30.80
2019-03-30T13:33:26.250Z,30.80
2019-03-30T13:35:56.905Z,31.20
2019-03-30T13:38:27.645Z,31.10
2019-03-30T13:40:58.217Z,31.40
2019-03-30T13:43:28.923Z,31.60
2019-03-30T13:45:59.691Z,32.10
2019-03-30T13:48:30.452Z,31.90
2019-03-30T13:51:02.101Z,31.70
2019-03-30T13:53:32.754Z,31.90
2019-03-30T13:56:16.249Z,31.20
2019-03-30T13:58:36.636Z,31.10
2019-03-30T14:01:07.420Z,31.30
2019-03-30T14:03:38.068Z,31.20
2019-03-30T14:06:08.618Z,31.60
2019-03-30T14:08:39.263Z,30.80
2019-03-30T14:11:09.794Z,30.70
2019-03-30T14:13:40.529Z,31.30
2019-03-30T14:16:11.195Z,31.60
2019-03-30T14:18:42.943Z,30.70
2019-03-30T14:21:13.590Z,30.90
2019-03-30T14:23:44.365Z,31.30
2019-03-30T14:26:16.018Z,30.50
2019-03-30T14:28:46.686Z,31.00
2019-03-30T14:31:17.311Z,31.10
2019-03-30T14:33:47.971Z,31.30
2019-03-30T14:36:19.568Z,30.80
2019-03-30T14:38:50.202Z,30.00
2019-03-30T14:41:20.732Z,29.20
2019-03-30T14:43:51.459Z,29.40
2019-03-30T14:46:22.023Z,30.00
2019-03-30T14:48:52.767Z,30.00
2019-03-30T14:51:24.437Z,30.20
2019-03-30T14:53:55.218Z,30.70
2019-03-30T14:56:25.971Z,30.80
2019-03-30T14:59:09.616Z,30.80
2019-03-30T15:01:30.194Z,30.80
2019-03-30T15:04:00.967Z,31.30
2019-03-30T15:06:43.417Z,30.90
2019-03-30T15:09:14.122Z,31.10
2019-03-30T15:11:44.802Z,31.80
2019-03-30T15:14:15.495Z,32.00
2019-03-30T15:16:46.123Z,31.30
2019-03-30T15:19:17.780Z,31.60
2019-03-30T15:21:48.440Z,32.00
2019-03-30T15:24:19.197Z,32.50
2019-03-30T15:26:59.974Z,31.90
2019-03-30T15:29:22.121Z,32.40
2019-03-30T15:31:52.875Z,32.30
2019-03-30T15:34:23.643Z,32.20
2019-03-30T15:36:56.459Z,31.90
2019-03-30T15:39:27.211Z,32.10
2019-03-30T15:41:57.869Z,31.60
2019-03-30T15:44:28.677Z,31.80
2019-03-30T15:46:59.225Z,31.90
2019-03-30T15:49:29.975Z,31.90
2019-03-30T15:52:13.427Z,32.00
2019-03-30T15:54:32.787Z,32.50
2019-03-30T15:57:13.588Z,32.70
2019-03-30T15:59:35.620Z,32.50
2019-03-30T16:02:06.381Z,32.00
2019-03-30T16:04:37.025Z,32.50
2019-03-30T16:07:07.583Z,32.90
2019-03-30T16:09:38.432Z,33.50
2019-03-30T16:12:09.174Z,33.60
2019-03-30T16:14:39.868Z,33.80
2019-03-30T16:17:10.433Z,34.20
2019-03-30T16:19:42.255Z,33.90
2019-03-30T16:22:13.102Z,34.70
2019-03-30T16:24:43.965Z,34.00
2019-03-30T16:27:28.284Z,33.70
2019-03-30T16:29:48.080Z,34.10
2019-03-30T16:32:18.645Z,34.80
2019-03-30T16:34:49.402Z,34.70
2019-03-30T16:37:21.159Z,34.00
2019-03-30T16:39:53.432Z,34.50
2019-03-30T16:42:23.990Z,34.70
2019-03-30T16:44:54.799Z,34.40
2019-03-30T16:47:25.594Z,34.60
2019-03-30T16:49:56.262Z,34.50
2019-03-30T16:52:26.800Z,34.30
2019-03-30T16:54:57.479Z,34.50
2019-03-30T16:57:42.116Z,35.20
2019-03-30T17:00:00.416Z,36.50
2019-03-30T17:02:31.144Z,36.40
2019-03-30T17:05:01.819Z,36.80
2019-03-30T17:07:32.549Z,37.00
2019-03-30T17:10:04.404Z,37.10
2019-03-30T17:12:36.065Z,37.30
2019-03-30T17:15:07.981Z,37.50
2019-03-30T17:17:38.726Z,37.60
2019-03-30T17:20:10.812Z,37.60
2019-03-30T17:22:41.531Z,37.80
2019-03-30T17:25:12.363Z,37.90
2019-03-30T17:27:56.951Z,38.40
2019-03-30T17:30:16.465Z,38.80
2019-03-30T17:32:47.100Z,39.00
2019-03-30T17:35:17.779Z,39.20
2019-03-30T17:37:48.529Z,39.50
2019-03-30T17:40:19.214Z,39.60
2019-03-30T17:42:50.924Z,39.80
2019-03-30T17:45:21.636Z,40.10
2019-03-30T17:47:52.207Z,40.30
2019-03-30T17:50:22.862Z,40.60
2019-03-30T17:52:53.513Z,41.00
2019-03-30T17:55:33.657Z,41.20
2019-03-30T17:57:56.559Z,41.20
2019-03-30T18:00:27.346Z,40.90
2019-03-30T18:02:58.093Z,41.10
2019-03-30T18:05:28.877Z,41.30
2019-03-30T18:08:01.789Z,41.50
2019-03-30T18:10:32.816Z,41.70
2019-03-30T18:13:03.467Z,41.80
2019-03-30T18:15:34.824Z,41.60
2019-03-30T18:18:05.722Z,41.50
2019-03-30T18:20:36.721Z,41.30
2019-03-30T18:23:07.442Z,41.20
2019-03-30T18:25:38.111Z,41.30
2019-03-30T18:28:08.763Z,41.60
2019-03-30T18:30:41.531Z,42.60
2019-03-30T18:33:12.377Z,41.90
2019-03-30T18:35:43.153Z,42.00
2019-03-30T18:38:13.881Z,42.30
2019-03-30T18:40:44.562Z,41.90
2019-03-30T18:43:15.574Z,41.90
2019-03-30T18:45:46.365Z,41.90
2019-03-30T18:48:18.423Z,42.10
2019-03-30T18:50:49.842Z,42.10
2019-03-30T18:53:20.418Z,42.20
2019-03-30T18:55:51.161Z,42.40
2019-03-30T18:58:21.796Z,42.70
2019-03-30T19:00:52.445Z,42.60
2019-03-30T19:03:23.086Z,42.80
2019-03-30T19:05:53.893Z,43.10
2019-03-30T19:08:24.638Z,43.30
2019-03-30T19:10:55.280Z,43.50
2019-03-30T19:13:25.947Z,43.50
2019-03-30T19:15:56.860Z,43.50
2019-03-30T19:18:27.760Z,43.00
2019-03-30T19:21:00.468Z,42.80
2019-03-30T19:23:31.006Z,42.60
2019-03-30T19:26:01.857Z,42.50
2019-03-30T19:28:32.598Z,42.60
2019-03-30T19:31:03.351Z,42.90
2019-03-30T19:33:33.886Z,43.20
2019-03-30T19:36:04.631Z,43.60
2019-03-30T19:38:35.182Z,43.50
2019-03-30T19:41:05.920Z,43.50
2019-03-30T19:43:36.459Z,43.50
2019-03-30T19:46:08.338Z,43.70
2019-03-30T19:48:39.032Z,44.10
2019-03-30T19:51:09.696Z,44.40
2019-03-30T19:53:40.507Z,44.40
2019-03-30T19:56:12.504Z,44.30
2019-03-30T19:58:43.153Z,44.70
2019-03-30T20:01:13.923Z,44.80
2019-03-30T20:03:44.578Z,45.20
2019-03-30T20:06:15.344Z,46.10
2019-03-30T20:08:45.991Z,46.30
2019-03-30T20:11:16.775Z,46.20
2019-03-30T20:13:47.484Z,46.80
2019-03-30T20:16:19.420Z,46.90
2019-03-30T20:18:50.178Z,47.00
2019-03-30T20:21:21.895Z,47.50
2019-03-30T20:23:52.533Z,48.10
2019-03-30T20:26:23.188Z,48.20
2019-03-30T20:28:53.883Z,48.30
2019-03-30T20:31:24.590Z,48.60
2019-03-30T20:33:55.345Z,49.00
2019-03-30T20:36:27.138Z,49.60
2019-03-30T20:38:57.789Z,49.90
2019-03-30T20:41:28.571Z,50.30
2019-03-30T20:43:59.245Z,50.50
2019-03-30T20:46:30.071Z,50.80
2019-03-30T20:49:00.627Z,51.10
2019-03-30T20:51:42.144Z,51.20
2019-03-30T20:54:12.774Z,51.50
2019-03-30T20:56:43.579Z,51.70
2019-03-30T20:59:14.276Z,52.20
2019-03-30T21:01:45.049Z,52.70
2019-03-30T21:04:15.692Z,52.90
2019-03-30T21:06:47.507Z,52.90
2019-03-30T21:09:18.140Z,52.90
2019-03-30T21:11:48.846Z,53.10
2019-03-30T21:14:19.495Z,53.30
2019-03-30T21:16:51.377Z,53.50
2019-03-30T21:19:22.051Z,53.50
2019-03-30T21:21:52.823Z,53.50
2019-03-30T21:24:23.491Z,53.60
2019-03-30T21:26:55.424Z,54.50
2019-03-30T21:29:27.267Z,54.00
2019-03-30T21:31:58.032Z,54.00
2019-03-30T21:34:28.851Z,54.00
2019-03-30T21:37:01.719Z,54.20
2019-03-30T21:39:32.383Z,54.20
2019-03-30T21:42:03.154Z,54.40
2019-03-30T21:44:33.847Z,55.10
2019-03-30T21:47:04.564Z,54.50
2019-03-30T21:49:35.124Z,54.50
2019-03-30T21:52:05.894Z,54.50
2019-03-30T21:54:36.565Z,54.50
2019-03-30T21:57:08.460Z,54.40
2019-03-30T21:59:39.200Z,54.60
2019-03-30T22:02:09.859Z,54.70
2019-03-30T22:04:40.488Z,54.70
2019-03-30T22:07:12.183Z,54.50
2019-03-30T22:09:43.435Z,54.40
2019-03-30T22:12:14.093Z,54.50
2019-03-30T22:14:44.653Z,54.80
2019-03-30T22:17:16.581Z,54.80
2019-03-30T22:19:47.123Z,54.80
2019-03-30T22:22:18.716Z,54.90
2019-03-30T22:24:49.383Z,55.00
2019-03-30T22:27:21.322Z,55.20
2019-03-30T22:29:52.068Z,55.30
2019-03-30T22:32:22.901Z,55.40
2019-03-30T22:34:53.556Z,55.50
2019-03-30T22:37:25.505Z,55.50
2019-03-30T22:39:56.246Z,55.50
2019-03-30T22:42:27.011Z,55.30
2019-03-30T22:44:57.576Z,55.40
2019-03-30T22:47:28.293Z,55.30
2019-03-30T22:49:58.849Z,55.10
2019-03-30T22:52:29.711Z,55.30
2019-03-30T22:55:00.271Z,55.30
2019-03-30T22:57:32.275Z,55.40
2019-03-30T23:00:02.846Z,55.40
2019-03-30T23:02:35.216Z,55.30
2019-03-30T23:05:06.347Z,55.40
2019-03-30T23:07:38.192Z,55.40
2019-03-30T23:10:08.944Z,55.50
2019-03-30T23:12:39.660Z,55.50
2019-03-30T23:15:10.307Z,55.40
2019-03-30T23:17:42.235Z,55.40
2019-03-30T23:20:12.787Z,55.40
2019-03-30T23:22:44.515Z,55.40
2019-03-30T23:25:14.479Z,55.40
2019-03-30T23:27:46.396Z,55.50
2019-03-30T23:30:17.243Z,55.60
2019-03-30T23:32:49.112Z,55.60
2019-03-30T23:35:19.843Z,55.40
2019-03-30T23:37:51.676Z,55.40
2019-03-30T23:40:22.210Z,55.40
2019-03-30T23:42:52.987Z,55.40
2019-03-30T23:45:23.513Z,55.40
2019-03-30T23:47:55.253Z,55.40
2019-03-30T23:50:25.891Z,55.30
2019-03-30T23:52:56.635Z,55.40
2019-03-30T23:55:27.255Z,55.30
2019-03-30T23:57:59.105Z,55.20
